createdAt,value
2019-02-14T00:03:13.098Z,42.53
2019-02-14T00:05:41.114Z,46.40
2019-02-14T00:08:09.071Z,46.10
2019-02-14T00:10:37.036Z,45.73
2019-02-14T00:13:04.984Z,43.17
2019-02-14T00:15:32.977Z,44.93
2019-02-14T00:18:00.924Z,44.83
2019-02-14T00:23:23.048Z,42.30
2019-02-14T00:25:51.028Z,51.43
2019-02-14T00:28:18.990Z,46.93
2019-02-14T00:30:47.000Z,45.53
2019-02-14T00:33:14.971Z,41.93
2019-02-14T00:35:42.928Z,44.30
2019-02-14T00:38:10.900Z,44.27
2019-02-14T00:40:38.877Z,48.23
2019-02-14T00:43:06.846Z,45.77
2019-02-14T00:45:34.867Z,47.93
2019-02-14T00:48:02.814Z,41.37
2019-02-14T00:50:30.817Z,42.67
2019-02-14T00:52:58.726Z,40.13
2019-02-14T00:55:26.658Z,40.70
2019-02-14T00:57:54.627Z,45.23
2019-02-14T01:00:22.642Z,41.27
2019-02-14T01:02:50.564Z,39.07
2019-02-14T01:05:18.554Z,40.87
2019-02-14T01:07:46.491Z,44.07
2019-02-14T01:10:14.503Z,37.03
2019-02-14T01:12:42.441Z,44.43
2019-02-14T01:17:45.483Z,45.53
2019-02-14T01:20:13.389Z,34.73
2019-02-14T01:22:41.334Z,38.20
2019-02-14T01:25:09.290Z,41.60
2019-02-14T01:30:24.268Z,43.17
2019-02-14T01:32:52.243Z,38.03
2019-02-14T01:35:20.209Z,41.87
2019-02-14T01:37:48.309Z,34.63
2019-02-14T01:40:17.800Z,34.00
2019-02-14T01:42:45.760Z,36.03
2019-02-14T01:45:13.693Z,36.40
2019-02-14T01:47:41.659Z,35.93
2019-02-14T01:50:09.622Z,36.33
2019-02-14T01:52:37.596Z,35.93
2019-02-14T01:55:05.540Z,32.60
2019-02-14T01:57:33.554Z,31.53
2019-02-14T02:00:01.606Z,30.63
2019-02-14T02:02:29.566Z,37.87
2019-02-14T02:04:57.465Z,36.30
2019-02-14T02:07:25.432Z,32.47
2019-02-14T02:09:53.392Z,32.37
2019-02-14T02:12:21.296Z,30.03
2019-02-14T02:14:49.268Z,36.90
2019-02-14T02:17:17.210Z,29.80
2019-02-14T02:19:45.212Z,31.57
2019-02-14T02:22:13.108Z,33.77
2019-02-14T02:24:41.111Z,29.67
2019-02-14T02:27:09.090Z,30.23
2019-02-14T02:29:37.082Z,35.90
2019-02-14T02:32:05.005Z,33.00
2019-02-14T02:34:32.996Z,31.93
2019-02-14T02:37:00.975Z,28.07
2019-02-14T02:39:28.912Z,32.27
2019-02-14T02:41:56.872Z,31.20
2019-02-14T02:44:24.820Z,27.10
2019-02-14T02:46:52.765Z,30.77
2019-02-14T02:49:20.685Z,30.30
2019-02-14T02:51:48.639Z,25.60
2019-02-14T02:54:16.613Z,30.13
2019-02-14T02:56:44.555Z,27.53
2019-02-14T02:59:14.208Z,28.20
2019-02-14T03:07:44.190Z,28.37
2019-02-14T03:10:12.366Z,32.33
2019-02-14T03:12:40.356Z,29.13
2019-02-14T03:15:08.752Z,27.63
2019-02-14T03:17:36.690Z,28.10
2019-02-14T03:20:05.008Z,27.57
2019-02-14T03:22:32.960Z,29.10
2019-02-14T03:25:00.891Z,31.70
2019-02-14T03:27:28.831Z,29.27
2019-02-14T03:29:56.813Z,28.17
2019-02-14T03:32:24.848Z,30.07
2019-02-14T03:34:53.005Z,25.97
2019-02-14T03:37:20.960Z,23.80
2019-02-14T03:39:48.926Z,29.60
2019-02-14T03:42:16.846Z,27.03
2019-02-14T03:44:44.820Z,31.03
2019-02-14T03:47:12.809Z,28.37
2019-02-14T03:49:40.816Z,23.17
2019-02-14T03:52:08.839Z,27.50
2019-02-14T03:54:36.818Z,26.27
2019-02-14T03:57:04.785Z,26.70
2019-02-14T03:59:32.788Z,28.23
2019-02-14T04:02:00.765Z,31.40
2019-02-14T04:04:28.779Z,26.37
2019-02-14T04:06:56.827Z,32.93
2019-02-14T04:09:24.814Z,31.60
2019-02-14T04:11:52.843Z,29.53
2019-02-14T04:14:20.837Z,28.03
2019-02-14T04:16:48.817Z,27.93
2019-02-14T04:19:16.722Z,27.97
2019-02-14T04:21:44.747Z,31.50
2019-02-14T04:24:12.675Z,25.40
2019-02-14T04:26:40.669Z,28.97
2019-02-14T04:29:08.611Z,26.70
2019-02-14T04:31:36.644Z,29.77
2019-02-14T04:34:04.576Z,29.03
2019-02-14T04:36:36.074Z,31.13
2019-02-14T04:39:02.178Z,29.13
2019-02-14T04:41:30.143Z,29.23
2019-02-14T04:43:58.113Z,28.70
2019-02-14T04:46:26.200Z,32.67
2019-02-14T04:48:54.371Z,26.03
2019-02-14T04:51:22.333Z,26.70
2019-02-14T04:53:50.286Z,29.13
2019-02-14T04:56:18.225Z,26.70
2019-02-14T04:58:46.208Z,28.87
2019-02-14T05:01:14.159Z,28.47
2019-02-14T05:03:42.151Z,25.13
2019-02-14T05:06:10.178Z,29.93
2019-02-14T05:08:38.114Z,30.03
2019-02-14T05:11:06.053Z,29.80
2019-02-14T05:13:34.100Z,31.07
2019-02-14T05:16:02.067Z,27.10
2019-02-14T05:18:30.056Z,27.53
2019-02-14T05:20:58.045Z,25.53
2019-02-14T05:23:26.008Z,30.10
2019-02-14T05:25:53.970Z,27.00
2019-02-14T05:28:21.876Z,25.83
2019-02-14T05:30:49.842Z,28.57
2019-02-14T05:33:17.785Z,25.60
2019-02-14T05:35:45.805Z,27.33
2019-02-14T05:38:13.746Z,27.93
2019-02-14T05:40:41.822Z,28.90
2019-02-14T05:43:09.796Z,27.17
2019-02-14T05:45:37.782Z,26.33
2019-02-14T05:48:05.741Z,23.57
2019-02-14T05:50:33.658Z,29.40
2019-02-14T05:53:01.617Z,26.37
2019-02-14T05:55:29.596Z,29.17
2019-02-14T05:57:57.563Z,27.10
2019-02-14T06:00:25.577Z,24.30
2019-02-14T06:02:53.582Z,22.97
2019-02-14T06:05:21.577Z,22.23
2019-02-14T06:07:49.593Z,27.23
2019-02-14T06:10:17.590Z,29.10
2019-02-14T06:12:45.540Z,23.07
2019-02-14T06:15:13.513Z,27.87
2019-02-14T06:17:41.569Z,28.10
2019-02-14T06:20:09.538Z,23.43
2019-02-14T06:22:37.553Z,26.23
2019-02-14T06:25:05.949Z,25.47
2019-02-14T06:27:33.916Z,24.27
2019-02-14T06:30:01.967Z,25.93
2019-02-14T06:32:29.944Z,27.77
2019-02-14T06:34:57.916Z,26.27
2019-02-14T06:37:25.970Z,24.23
2019-02-14T06:42:48.469Z,28.93
2019-02-14T06:45:16.392Z,24.82
2019-02-14T06:47:44.345Z,24.03
2019-02-14T06:50:12.411Z,22.37
2019-02-14T06:55:34.553Z,25.40
2019-02-14T06:58:02.549Z,21.40
2019-02-14T07:03:24.225Z,24.47
2019-02-14T07:09:00.745Z,26.33
2019-02-14T07:11:28.719Z,23.33
2019-02-14T07:16:50.931Z,27.03
2019-02-14T07:19:18.992Z,25.33
2019-02-14T07:21:46.948Z,24.73
2019-02-14T07:24:14.935Z,26.27
2019-02-14T07:26:42.929Z,26.53
2019-02-14T07:29:29.965Z,25.97
2019-02-14T07:35:06.709Z,29.43
2019-02-14T07:37:35.978Z,24.50
2019-02-14T07:39:51.768Z,32.77
2019-02-14T07:45:14.175Z,25.33
2019-02-14T07:47:42.304Z,30.33
2019-02-14T07:53:04.369Z,34.53
2019-02-14T07:55:32.377Z,29.07
2019-02-14T08:01:27.156Z,24.63
2019-02-14T08:03:55.056Z,26.43
2019-02-14T08:06:23.094Z,28.60
2019-02-14T08:08:51.026Z,28.67
2019-02-14T08:11:19.074Z,23.60
2019-02-14T08:13:47.062Z,28.17
2019-02-14T08:16:15.159Z,27.67
2019-02-14T08:21:50.675Z,26.90
2019-02-14T08:24:18.677Z,22.17
2019-02-14T08:29:54.177Z,24.13
2019-02-14T08:32:22.114Z,27.93
2019-02-14T08:34:50.114Z,23.93
2019-02-14T08:37:18.982Z,27.93
2019-02-14T08:42:41.464Z,23.10
2019-02-14T08:45:09.733Z,27.50
2019-02-14T08:50:45.181Z,26.40
2019-02-14T08:56:20.721Z,25.90
2019-02-14T09:01:42.980Z,25.23
2019-02-14T09:04:10.952Z,24.63
2019-02-14T09:09:52.423Z,25.13
2019-02-14T09:15:17.441Z,20.20
2019-02-14T09:18:16.813Z,28.60
2019-02-14T09:20:34.753Z,27.30
2019-02-14T09:23:02.781Z,26.27
2019-02-14T09:25:30.726Z,26.83
2019-02-14T09:27:58.770Z,27.70
2019-02-14T09:33:34.258Z,27.37
2019-02-14T09:36:02.217Z,26.87
2019-02-14T09:38:30.187Z,26.77
2019-02-14T09:44:05.696Z,30.20
2019-02-14T09:49:41.166Z,29.60
2019-02-14T09:52:09.104Z,30.17
2019-02-14T09:54:47.769Z,24.57
2019-02-14T09:59:53.829Z,30.13
2019-02-14T10:05:29.467Z,29.63
2019-02-14T10:11:05.035Z,28.57
2019-02-14T10:13:32.981Z,25.03
2019-02-14T10:16:00.998Z,28.17
2019-02-14T10:18:28.986Z,26.10
2019-02-14T10:20:56.925Z,24.87
2019-02-14T10:23:36.654Z,27.50
2019-02-14T10:25:54.580Z,25.23
2019-02-14T10:28:23.561Z,26.77
2019-02-14T10:30:51.524Z,29.70
2019-02-14T10:33:19.540Z,28.93
2019-02-14T10:38:55.028Z,36.73
2019-02-14T10:41:22.961Z,20.97
2019-02-14T10:43:50.987Z,23.20
2019-02-14T10:49:26.605Z,28.80
2019-02-14T10:51:54.577Z,26.27
2019-02-14T10:54:22.613Z,33.80
2019-02-14T10:59:58.439Z,21.93
2019-02-14T11:05:35.533Z,23.73
2019-02-14T11:08:03.545Z,25.57
2019-02-14T11:10:31.514Z,22.73
2019-02-14T11:13:06.497Z,22.17
2019-02-14T11:15:34.565Z,23.17
2019-02-14T11:18:02.547Z,20.37
2019-02-14T11:20:30.508Z,21.77
2019-02-14T11:22:58.591Z,20.90
2019-02-14T11:28:54.480Z,20.90
2019-02-14T11:31:22.533Z,17.87
2019-02-14T11:36:44.678Z,26.40
2019-02-14T11:39:12.689Z,26.77
2019-02-14T11:44:48.176Z,28.50
2019-02-14T11:50:23.720Z,25.20
2019-02-14T11:55:59.210Z,24.67
2019-02-14T11:58:27.155Z,26.97
2019-02-14T12:03:49.213Z,23.70
2019-02-14T12:06:17.749Z,26.23
2019-02-14T12:11:33.940Z,23.93
2019-02-14T12:14:01.950Z,30.53
2019-02-14T12:19:23.683Z,23.17
2019-02-14T12:24:45.905Z,22.43
2019-02-14T12:27:32.872Z,27.27
2019-02-14T12:30:01.243Z,23.30
2019-02-14T12:35:23.086Z,25.00
2019-02-14T12:40:45.416Z,31.33
2019-02-14T12:43:13.418Z,31.17
2019-02-14T12:45:41.438Z,23.57
2019-02-14T12:48:09.489Z,23.50
2019-02-14T12:50:37.465Z,21.43
2019-02-14T12:53:05.427Z,21.00
2019-02-14T12:55:33.375Z,24.33
2019-02-14T12:58:01.374Z,23.70
2019-02-14T13:00:29.433Z,28.47
2019-02-14T13:02:57.415Z,28.13
2019-02-14T13:05:25.446Z,26.07
2019-02-14T13:07:53.475Z,23.13
2019-02-14T13:10:21.519Z,33.27
2019-02-14T13:12:49.470Z,22.90
2019-02-14T13:15:18.478Z,24.17
2019-02-14T13:17:46.553Z,25.30
2019-02-14T13:23:08.890Z,28.80
2019-02-14T13:25:36.882Z,32.03
2019-02-14T13:28:04.987Z,22.33
2019-02-14T13:30:32.985Z,27.30
2019-02-14T13:33:00.912Z,25.17
2019-02-14T13:35:28.894Z,25.13
2019-02-14T13:37:56.914Z,25.20
2019-02-14T13:40:24.828Z,23.80
2019-02-14T13:42:52.811Z,23.60
2019-02-14T13:45:21.766Z,22.33
2019-02-14T13:47:49.801Z,23.23
2019-02-14T13:50:17.828Z,23.37
2019-02-14T13:52:45.894Z,32.13
2019-02-14T13:55:13.874Z,23.93
2019-02-14T13:57:41.896Z,21.27
2019-02-14T14:00:11.538Z,21.73
2019-02-14T14:02:39.554Z,25.70
2019-02-14T14:08:15.200Z,27.07
2019-02-14T14:10:43.633Z,22.57
2019-02-14T14:13:11.629Z,25.03
2019-02-14T14:15:39.588Z,26.63
2019-02-14T14:21:01.569Z,25.27
2019-02-14T14:23:29.917Z,23.07
2019-02-14T14:25:57.883Z,23.40
2019-02-14T14:28:26.448Z,24.47
2019-02-14T14:30:54.812Z,22.20
2019-02-14T14:36:16.655Z,20.77
2019-02-14T14:38:45.403Z,21.87
2019-02-14T14:41:13.714Z,24.30
2019-02-14T14:44:00.670Z,23.50
2019-02-14T14:46:32.586Z,20.77
2019-02-14T14:49:00.584Z,23.07
2019-02-14T14:51:28.515Z,23.10
2019-02-14T14:53:56.469Z,20.03
2019-02-14T14:56:24.443Z,18.50
2019-02-14T14:58:52.727Z,23.97
2019-02-14T15:01:20.655Z,21.87
2019-02-14T15:03:48.662Z,21.37
2019-02-14T15:06:16.614Z,16.47
2019-02-14T15:08:44.597Z,20.40
2019-02-14T15:14:06.908Z,20.37
2019-02-14T15:16:53.913Z,25.27
2019-02-14T15:22:29.686Z,21.00
2019-02-14T15:24:57.638Z,21.93
2019-02-14T15:27:25.732Z,21.37
2019-02-14T15:29:53.758Z,22.07
2019-02-14T15:35:16.361Z,21.10
2019-02-14T15:40:38.813Z,22.97
2019-02-14T15:43:06.794Z,23.27
2019-02-14T15:48:09.543Z,26.37
2019-02-14T15:50:37.525Z,46.43
2019-02-14T15:56:13.129Z,22.20
2019-02-14T15:58:54.542Z,23.30
2019-02-14T16:01:10.724Z,21.20
2019-02-14T16:03:40.564Z,23.40
2019-02-14T16:06:08.334Z,24.37
2019-02-14T16:08:36.317Z,21.37
2019-02-14T16:11:04.266Z,21.40
2019-02-14T16:16:26.707Z,18.33
2019-02-14T16:18:54.698Z,20.80
2019-02-14T16:21:22.660Z,23.33
2019-02-14T16:26:44.432Z,22.17
2019-02-14T16:40:14.154Z,21.43
2019-02-14T16:43:03.728Z,23.87
2019-02-14T16:48:38.155Z,34.00
2019-02-14T16:51:28.489Z,30.93
2019-02-14T16:57:24.158Z,21.97
2019-02-14T17:02:46.477Z,23.40
2019-02-14T17:05:14.696Z,23.30
2019-02-14T17:10:37.204Z,26.10
2019-02-14T17:13:06.133Z,24.17
2019-02-14T17:21:28.972Z,25.37
2019-02-14T17:24:32.119Z,26.07
2019-02-14T17:32:02.203Z,22.07
2019-02-14T17:37:37.881Z,25.53
2019-02-14T17:43:13.536Z,28.83
2019-02-14T17:48:51.403Z,25.87
2019-02-14T17:51:57.370Z,31.87
2019-02-14T17:54:13.284Z,24.07
2019-02-14T17:59:30.059Z,29.20
2019-02-14T18:01:58.170Z,27.13
2019-02-14T18:17:54.533Z,25.53
2019-02-14T18:20:22.523Z,32.60
2019-02-14T18:22:50.556Z,28.43
2019-02-14T18:25:18.548Z,26.17
2019-02-14T18:27:46.483Z,25.43
2019-02-14T18:30:14.486Z,28.50
2019-02-14T18:32:43.750Z,24.70
2019-02-14T18:35:12.229Z,31.57
2019-02-14T18:37:40.283Z,36.87
2019-02-14T18:40:08.572Z,29.17
2019-02-14T18:42:36.829Z,29.47
2019-02-14T18:45:05.061Z,34.77
2019-02-14T18:47:39.694Z,29.10
2019-02-14T18:50:05.589Z,33.73
2019-02-14T18:52:34.926Z,28.20
2019-02-14T18:55:02.936Z,38.63
2019-02-14T18:57:30.929Z,34.33
2019-02-14T18:59:59.908Z,30.30
2019-02-14T19:02:27.812Z,35.10
2019-02-14T19:04:55.803Z,30.67
2019-02-14T19:07:23.856Z,36.90
2019-02-14T19:09:51.830Z,35.60
2019-02-14T19:12:19.816Z,43.83
2019-02-14T19:14:47.841Z,34.63
2019-02-14T19:17:15.896Z,34.57
2019-02-14T19:19:45.645Z,43.13
2019-02-14T19:22:13.690Z,46.27
2019-02-14T19:24:41.783Z,35.57
2019-02-14T19:27:09.986Z,38.17
2019-02-14T19:29:38.434Z,41.93
2019-02-14T19:32:06.354Z,38.80
2019-02-14T19:34:34.342Z,36.10
2019-02-14T19:37:02.390Z,39.40
2019-02-14T19:39:30.636Z,43.47
2019-02-14T19:42:00.299Z,47.70
2019-02-14T19:44:29.331Z,40.33
2019-02-14T19:46:57.262Z,36.60
2019-02-14T19:49:26.292Z,36.07
2019-02-14T19:51:54.730Z,43.03
2019-02-14T19:54:22.746Z,43.40
2019-02-14T19:56:50.697Z,44.37
2019-02-14T19:59:18.651Z,41.07
2019-02-14T20:01:46.835Z,33.43
2019-02-14T20:04:14.773Z,46.47
2019-02-14T20:06:43.947Z,40.17
2019-02-14T20:09:11.905Z,38.13
2019-02-14T20:11:41.037Z,42.07
2019-02-14T20:14:09.027Z,40.57
2019-02-14T20:16:36.988Z,39.07
2019-02-14T20:19:04.935Z,36.57
2019-02-14T20:21:32.897Z,38.23
2019-02-14T20:24:00.857Z,39.30
2019-02-14T20:26:28.855Z,31.90
2019-02-14T20:28:56.911Z,37.17
2019-02-14T20:31:25.986Z,31.50
2019-02-14T20:33:55.314Z,35.00
2019-02-14T20:36:23.285Z,35.37
2019-02-14T20:38:51.256Z,34.07
2019-02-14T20:41:19.232Z,34.73
2019-02-14T20:43:49.054Z,30.77
2019-02-14T20:46:17.023Z,32.07
2019-02-14T20:48:45.036Z,44.03
2019-02-14T20:51:13.030Z,35.30
2019-02-14T20:53:41.032Z,39.10
2019-02-14T20:56:09.045Z,34.40
2019-02-14T20:58:37.039Z,31.10
2019-02-14T21:01:08.076Z,37.77
2019-02-14T21:03:37.638Z,30.40
2019-02-14T21:06:05.677Z,33.63
2019-02-14T21:08:33.640Z,32.10
2019-02-14T21:11:01.634Z,25.03
2019-02-14T21:13:29.591Z,29.67
2019-02-14T21:15:57.697Z,33.97
2019-02-14T21:18:25.789Z,34.53
2019-02-14T21:20:54.066Z,32.53
2019-02-14T21:23:22.379Z,28.03
2019-02-14T21:25:50.764Z,42.90
2019-02-14T21:28:18.998Z,29.90
2019-02-14T21:30:47.101Z,37.83
2019-02-14T21:33:15.402Z,33.90
2019-02-14T21:35:43.987Z,26.70
2019-02-14T21:38:12.338Z,35.97
2019-02-14T21:40:41.477Z,33.47
2019-02-14T21:43:10.103Z,31.10
2019-02-14T21:45:39.478Z,33.47
2019-02-14T21:48:07.962Z,33.37
2019-02-14T21:50:37.472Z,26.13
2019-02-14T21:53:05.608Z,27.93
2019-02-14T21:55:34.101Z,28.90
2019-02-14T21:58:05.042Z,25.43
2019-02-14T22:00:32.934Z,29.33
2019-02-14T22:03:01.268Z,27.93
2019-02-14T22:05:29.579Z,28.13
2019-02-14T22:07:57.860Z,29.77
2019-02-14T22:10:27.867Z,24.23
2019-02-14T22:12:56.479Z,28.40
2019-02-14T22:15:24.991Z,24.53
2019-02-14T22:17:53.648Z,26.90
2019-02-14T22:20:22.248Z,27.63
2019-02-14T22:22:50.986Z,28.87
2019-02-14T22:25:19.249Z,32.50
2019-02-14T22:27:47.795Z,28.57
2019-02-14T22:30:16.695Z,29.53
2019-02-14T22:32:44.949Z,32.80
2019-02-14T22:35:14.734Z,27.37
2019-02-14T22:37:43.867Z,29.43
2019-02-14T22:40:11.834Z,29.07
2019-02-14T22:42:47.071Z,29.50
2019-02-14T22:45:10.489Z,27.87
2019-02-14T22:47:39.607Z,26.73
2019-02-14T22:50:07.932Z,29.50
2019-02-14T22:52:35.944Z,33.80
2019-02-14T22:55:04.065Z,28.87
2019-02-14T22:57:32.099Z,28.03
2019-02-14T23:00:01.597Z,30.37
2019-02-14T23:02:29.719Z,28.27
2019-02-14T23:04:57.733Z,29.10
2019-02-14T23:07:26.226Z,26.23
2019-02-14T23:09:56.189Z,29.33
2019-02-14T23:12:25.687Z,26.73
2019-02-14T23:14:53.709Z,25.43
2019-02-14T23:17:21.681Z,33.10
2019-02-14T23:19:50.033Z,30.33
2019-02-14T23:22:18.107Z,29.77
2019-02-14T23:24:47.423Z,26.70
2019-02-14T23:27:15.408Z,22.90
2019-02-14T23:29:44.493Z,28.33
2019-02-14T23:32:12.545Z,24.70
2019-02-14T23:34:40.605Z,27.93
2019-02-14T23:37:10.114Z,23.37
2019-02-14T23:39:38.076Z,23.80
2019-02-14T23:42:06.018Z,24.43
2019-02-14T23:44:33.997Z,22.63
2019-02-14T23:47:02.054Z,23.77
2019-02-14T23:49:30.370Z,23.80
2019-02-14T23:51:59.557Z,24.33
2019-02-14T23:54:27.758Z,29.07
2019-02-14T23:56:56.915Z,27.63
2019-02-14T23:59:24.874Z,26.67
